Lentini, Italy

9:39 AM CEST on August 21, 2014 (GMT +0200)
Zona Industriale - Catania | Change Station
CLOSE
Current Station
Personal Weather Station
Location: (*Meteosicilia*), Sicily
Elevation: 60 ft
Nearby Weather Stations
Active Advisory: Extreme high temperature

Elev 60 ft 37.45 °N, 15.04 °E | Updated 2 seconds ago

Clear
Clear
85.2 °F
Feels Like 92 °F
N
0.0
Wind Variable Wind from ESE
Gusts 0.0 mph

Today
High -- | Low -- °F
--% Chance of Precip.
Yesterday
High -- | Low -- °F
Precip. -- in
6:21 AM 7:45 PM
Waning Crescent, 16% visible
Pressure 29.98 in
Visibility -9999.0 miles
Clouds
Heat Index 92 °F
Dew Point 73 °F
Humidity 68%
Rainfall 0.00 in
Snow Depth Not available.
UV Not available.
Pollen Not available.
Air Quality Not available.
Flu Activity Not available.
METAR LICC 210720Z VRB02KT CAVOK 29/20 Q1015

More Conditions Fewer Conditions

Pressure 29.98 in
Visibility -9999.0 miles
Clouds
Heat Index 92 °F
Dew Point 73 °F
Humidity 68%
Rainfall 0.00 in
Snow Depth Not available.
UV Not available.
Pollen Not available.
Air Quality Not available.
Flu Activity Not available.
METAR LICC 210720Z VRB02KT CAVOK 29/20 Q1015

More Conditions Fewer Conditions

10-Day Weather Forecast

Almanac

Astronomy

Aug. 21, 2014 Rise Set
Actual Time 6:21 AM CEST 7:45 PM CEST
Civil Twilight 5:53 AM CEST 8:12 PM CEST
Nautical Twilight 5:21 AM CEST 8:45 PM CEST
Astronomical Twilight 4:46 AM CEST 9:19 PM CEST
Moon 2:38 AM CEST 4:59 PM CEST
Length of Visible Light 14h 18m
Length of Day
13h 23m
Tomorrow will be 2m 10s shorter.
Waning Crescent, 16% of the Moon is Illuminated
Today
Waning Crescent
Aug 25
New
Sep 2
First Quarter
Sep 8
Full
Sep 15
Last Quarter

Yesterday's Extremes

Country Highs Country Lows

Community

WunderPhotos

Upload Photos

1,745,858 photos uploaded!

Nearby

Snow Depth

Not available.

Earthquake Activity

City Distance Mag. Time & Date
No recent earthquake activity has been reported nearby.
Minimum magnitude displayed is 2.5.

Coastal Water Temperatures

Place Temperature
No Stations Reporting

Nearby Weather Stations